sensor_id;sensor_type;location;lat;lon;timestamp;temperature;humidity
43894;DHT22;29556;50.846;4.442;2022-08-11T00:01:13;20.90;70.00
43894;DHT22;29556;50.846;4.442;2022-08-11T00:03:46;20.90;70.20
43894;DHT22;29556;50.846;4.442;2022-08-11T00:06:13;20.90;70.20
43894;DHT22;29556;50.846;4.442;2022-08-11T00:08:40;20.80;70.40
43894;DHT22;29556;50.846;4.442;2022-08-11T00:11:08;20.80;70.50
43894;DHT22;29556;50.846;4.442;2022-08-11T00:13:38;20.80;70.90
43894;DHT22;29556;50.846;4.442;2022-08-11T00:16:17;20.80;70.90
43894;DHT22;29556;50.846;4.442;2022-08-11T00:18:46;20.70;70.90
43894;DHT22;29556;50.846;4.442;2022-08-11T00:21:13;20.70;70.90
43894;DHT22;29556;50.846;4.442;2022-08-11T00:23:44;20.70;70.90
43894;DHT22;29556;50.846;4.442;2022-08-11T00:26:12;20.70;70.90
43894;DHT22;29556;50.846;4.442;2022-08-11T00:28:40;20.60;70.90
43894;DHT22;29556;50.846;4.442;2022-08-11T00:31:30;20.60;71.00
43894;DHT22;29556;50.846;4.442;2022-08-11T00:33:58;20.60;71.30
43894;DHT22;29556;50.846;4.442;2022-08-11T00:36:28;20.60;71.40
43894;DHT22;29556;50.846;4.442;2022-08-11T00:39:04;20.50;71.60
43894;DHT22;29556;50.846;4.442;2022-08-11T00:41:54;20.50;71.60
43894;DHT22;29556;50.846;4.442;2022-08-11T00:44:31;20.50;71.60
43894;DHT22;29556;50.846;4.442;2022-08-11T00:47:12;20.40;71.70
43894;DHT22;29556;50.846;4.442;2022-08-11T01:06:51;20.20;72.40
43894;DHT22;29556;50.846;4.442;2022-08-11T01:15:39;20.20;72.60
43894;DHT22;29556;50.846;4.442;2022-08-11T01:49:38;19.80;73.00
43894;DHT22;29556;50.846;4.442;2022-08-11T01:52:10;19.80;73.10
43894;DHT22;29556;50.846;4.442;2022-08-11T01:57:33;19.80;73.20
43894;DHT22;29556;50.846;4.442;2022-08-11T02:00:18;19.80;73.20
43894;DHT22;29556;50.846;4.442;2022-08-11T02:02:59;19.80;73.10
43894;DHT22;29556;50.846;4.442;2022-08-11T02:08:09;19.70;73.30
43894;DHT22;29556;50.846;4.442;2022-08-11T02:14:18;19.70;73.20
43894;DHT22;29556;50.846;4.442;2022-08-11T02:19:53;19.60;73.50
43894;DHT22;29556;50.846;4.442;2022-08-11T02:23:07;19.60;73.30
43894;DHT22;29556;50.846;4.442;2022-08-11T02:26:02;19.50;73.10
43894;DHT22;29556;50.846;4.442;2022-08-11T02:28:33;19.50;73.20
43894;DHT22;29556;50.846;4.442;2022-08-11T02:31:06;19.50;72.80
43894;DHT22;29556;50.846;4.442;2022-08-11T02:34:27;19.40;72.60
43894;DHT22;29556;50.846;4.442;2022-08-11T02:39:47;19.40;72.90
43894;DHT22;29556;50.846;4.442;2022-08-11T02:54:14;19.30;73.20
43894;DHT22;29556;50.846;4.442;2022-08-11T02:56:53;19.30;73.00
43894;DHT22;29556;50.846;4.442;2022-08-11T03:02:32;19.20;73.00
43894;DHT22;29556;50.846;4.442;2022-08-11T03:10:22;19.10;73.30
43894;DHT22;29556;50.846;4.442;2022-08-11T03:13:21;19.10;73.30
43894;DHT22;29556;50.846;4.442;2022-08-11T03:22:20;19.00;73.70
43894;DHT22;29556;50.846;4.442;2022-08-11T03:27:33;19.10;74.00
43894;DHT22;29556;50.846;4.442;2022-08-11T03:35:02;18.90;74.10
43894;DHT22;29556;50.846;4.442;2022-08-11T03:37:55;18.90;74.00
43894;DHT22;29556;50.846;4.442;2022-08-11T03:40:35;18.90;74.00
43894;DHT22;29556;50.846;4.442;2022-08-11T03:49:24;18.80;74.20
43894;DHT22;29556;50.846;4.442;2022-08-11T03:52:06;18.80;74.30
43894;DHT22;29556;50.846;4.442;2022-08-11T04:08:40;18.60;74.40
43894;DHT22;29556;50.846;4.442;2022-08-11T04:14:05;18.70;74.90
43894;DHT22;29556;50.846;4.442;2022-08-11T04:19:56;18.60;74.80
43894;DHT22;29556;50.846;4.442;2022-08-11T04:22:47;18.60;74.70
43894;DHT22;29556;50.846;4.442;2022-08-11T04:31:10;18.50;74.70
43894;DHT22;29556;50.846;4.442;2022-08-11T04:37:03;18.60;74.70
43894;DHT22;29556;50.846;4.442;2022-08-11T04:55:43;18.50;75.30
43894;DHT22;29556;50.846;4.442;2022-08-11T05:12:54;18.50;75.80
43894;DHT22;29556;50.846;4.442;2022-08-11T05:15:30;18.40;75.90
43894;DHT22;29556;50.846;4.442;2022-08-11T05:18:23;18.40;76.10
43894;DHT22;29556;50.846;4.442;2022-08-11T05:21:11;18.50;76.30
43894;DHT22;29556;50.846;4.442;2022-08-11T05:24:21;18.50;76.30
43894;DHT22;29556;50.846;4.442;2022-08-11T05:27:08;18.50;76.50
43894;DHT22;29556;50.846;4.442;2022-08-11T05:32:56;18.50;76.70
43894;DHT22;29556;50.846;4.442;2022-08-11T05:35:44;18.50;76.90
43894;DHT22;29556;50.846;4.442;2022-08-11T05:38:23;18.60;77.10
43894;DHT22;29556;50.846;4.442;2022-08-11T05:41:10;18.60;77.30
43894;DHT22;29556;50.846;4.442;2022-08-11T05:44:00;18.50;77.20
43894;DHT22;29556;50.846;4.442;2022-08-11T05:46:45;18.60;77.40
43894;DHT22;29556;50.846;4.442;2022-08-11T05:49:31;18.60;77.50
43894;DHT22;29556;50.846;4.442;2022-08-11T05:52:22;18.60;77.50
43894;DHT22;29556;50.846;4.442;2022-08-11T05:55:08;18.70;77.60
43894;DHT22;29556;50.846;4.442;2022-08-11T05:58:01;18.70;77.80
43894;DHT22;29556;50.846;4.442;2022-08-11T06:00:27;18.70;77.90
43894;DHT22;29556;50.846;4.442;2022-08-11T06:02:58;18.80;78.00
43894;DHT22;29556;50.846;4.442;2022-08-11T06:05:39;18.80;78.00
43894;DHT22;29556;50.846;4.442;2022-08-11T06:08:10;18.90;78.10
43894;DHT22;29556;50.846;4.442;2022-08-11T06:10:39;18.90;78.10
43894;DHT22;29556;50.846;4.442;2022-08-11T06:13:06;18.90;78.10
43894;DHT22;29556;50.846;4.442;2022-08-11T06:15:43;19.00;78.10
43894;DHT22;29556;50.846;4.442;2022-08-11T06:18:10;19.00;78.10
43894;DHT22;29556;50.846;4.442;2022-08-11T06:20:52;19.00;78.10
43894;DHT22;29556;50.846;4.442;2022-08-11T06:23:23;19.10;78.20
43894;DHT22;29556;50.846;4.442;2022-08-11T06:25:55;19.10;78.10
43894;DHT22;29556;50.846;4.442;2022-08-11T06:28:29;19.10;78.90
43894;DHT22;29556;50.846;4.442;2022-08-11T06:30:57;19.20;78.00
43894;DHT22;29556;50.846;4.442;2022-08-11T06:33:44;19.20;77.90
43894;DHT22;29556;50.846;4.442;2022-08-11T06:42:06;19.40;77.40
43894;DHT22;29556;50.846;4.442;2022-08-11T06:44:39;19.50;77.50
43894;DHT22;29556;50.846;4.442;2022-08-11T06:47:11;19.50;78.20
43894;DHT22;29556;50.846;4.442;2022-08-11T06:49:43;19.60;77.40
43894;DHT22;29556;50.846;4.442;2022-08-11T06:52:30;19.60;77.10
43894;DHT22;29556;50.846;4.442;2022-08-11T06:54:59;19.70;76.90
43894;DHT22;29556;50.846;4.442;2022-08-11T06:57:33;19.70;76.60
43894;DHT22;29556;50.846;4.442;2022-08-11T07:00:19;19.80;76.40
43894;DHT22;29556;50.846;4.442;2022-08-11T07:03:02;19.90;76.40
43894;DHT22;29556;50.846;4.442;2022-08-11T07:05:46;19.90;76.10
43894;DHT22;29556;50.846;4.442;2022-08-11T07:08:42;20.00;75.80
43894;DHT22;29556;50.846;4.442;2022-08-11T07:14:42;20.20;75.30
43894;DHT22;29556;50.846;4.442;2022-08-11T07:17:30;20.20;74.60
43894;DHT22;29556;50.846;4.442;2022-08-11T07:20:01;20.30;74.10
43894;DHT22;29556;50.846;4.442;2022-08-11T07:22:58;20.30;73.50
43894;DHT22;29556;50.846;4.442;2022-08-11T07:25:46;20.50;73.10
43894;DHT22;29556;50.846;4.442;2022-08-11T07:28:33;20.60;72.90
43894;DHT22;29556;50.846;4.442;2022-08-11T07:31:27;20.60;72.70
43894;DHT22;29556;50.846;4.442;2022-08-11T07:36:55;20.80;71.70
43894;DHT22;29556;50.846;4.442;2022-08-11T07:39:30;20.90;72.00
43894;DHT22;29556;50.846;4.442;2022-08-11T07:41:58;20.90;69.90
43894;DHT22;29556;50.846;4.442;2022-08-11T07:44:25;20.90;70.30
43894;DHT22;29556;50.846;4.442;2022-08-11T07:46:54;21.00;70.20
43894;DHT22;29556;50.846;4.442;2022-08-11T07:49:39;21.10;69.80
43894;DHT22;29556;50.846;4.442;2022-08-11T07:52:29;21.10;69.80
43894;DHT22;29556;50.846;4.442;2022-08-11T07:55:10;21.30;69.90
43894;DHT22;29556;50.846;4.442;2022-08-11T07:57:36;21.30;69.70
43894;DHT22;29556;50.846;4.442;2022-08-11T08:00:21;21.40;69.10
43894;DHT22;29556;50.846;4.442;2022-08-11T08:03:06;21.40;68.80
43894;DHT22;29556;50.846;4.442;2022-08-11T08:05:51;21.50;68.50
43894;DHT22;29556;50.846;4.442;2022-08-11T08:08:36;21.50;67.90
43894;DHT22;29556;50.846;4.442;2022-08-11T08:11:24;21.60;67.20
43894;DHT22;29556;50.846;4.442;2022-08-11T08:14:08;21.70;67.10
43894;DHT22;29556;50.846;4.442;2022-08-11T08:16:55;21.80;67.00
43894;DHT22;29556;50.846;4.442;2022-08-11T08:19:42;21.80;66.60
43894;DHT22;29556;50.846;4.442;2022-08-11T08:22:14;21.90;66.30
43894;DHT22;29556;50.846;4.442;2022-08-11T08:24:41;22.00;65.70
43894;DHT22;29556;50.846;4.442;2022-08-11T08:27:09;22.00;65.20
43894;DHT22;29556;50.846;4.442;2022-08-11T08:29:39;22.10;65.10
43894;DHT22;29556;50.846;4.442;2022-08-11T08:32:25;22.20;65.10
43894;DHT22;29556;50.846;4.442;2022-08-11T08:34:54;22.30;64.00
43894;DHT22;29556;50.846;4.442;2022-08-11T08:37:23;22.30;63.80
43894;DHT22;29556;50.846;4.442;2022-08-11T08:39:49;22.40;62.60
43894;DHT22;29556;50.846;4.442;2022-08-11T08:42:27;22.40;62.40
43894;DHT22;29556;50.846;4.442;2022-08-11T08:45:18;22.60;62.30
43894;DHT22;29556;50.846;4.442;2022-08-11T08:48:05;22.60;61.20
43894;DHT22;29556;50.846;4.442;2022-08-11T08:50:35;22.70;60.80
43894;DHT22;29556;50.846;4.442;2022-08-11T08:53:22;22.80;60.50
43894;DHT22;29556;50.846;4.442;2022-08-11T08:55:49;22.80;60.20
43894;DHT22;29556;50.846;4.442;2022-08-11T08:58:17;22.90;60.00
43894;DHT22;29556;50.846;4.442;2022-08-11T09:00:45;23.00;59.80
43894;DHT22;29556;50.846;4.442;2022-08-11T09:03:19;23.00;58.80
43894;DHT22;29556;50.846;4.442;2022-08-11T09:05:47;23.10;58.70
43894;DHT22;29556;50.846;4.442;2022-08-11T09:08:17;23.10;58.20
43894;DHT22;29556;50.846;4.442;2022-08-11T09:10:46;23.20;58.00
43894;DHT22;29556;50.846;4.442;2022-08-11T09:13:44;23.30;57.30
43894;DHT22;29556;50.846;4.442;2022-08-11T09:16:15;23.40;57.20
43894;DHT22;29556;50.846;4.442;2022-08-11T09:18:42;23.40;57.10
43894;DHT22;29556;50.846;4.442;2022-08-11T09:21:25;23.50;56.90
43894;DHT22;29556;50.846;4.442;2022-08-11T09:23:51;23.60;56.60
43894;DHT22;29556;50.846;4.442;2022-08-11T09:26:37;23.60;55.50
43894;DHT22;29556;50.846;4.442;2022-08-11T09:29:22;23.60;55.30
43894;DHT22;29556;50.846;4.442;2022-08-11T09:31:48;23.70;55.60
43894;DHT22;29556;50.846;4.442;2022-08-11T09:34:15;23.80;55.60
43894;DHT22;29556;50.846;4.442;2022-08-11T09:36:42;23.90;55.20
43894;DHT22;29556;50.846;4.442;2022-08-11T09:39:31;23.90;55.10
43894;DHT22;29556;50.846;4.442;2022-08-11T09:42:21;23.90;55.00
43894;DHT22;29556;50.846;4.442;2022-08-11T09:45:11;24.00;54.20
43894;DHT22;29556;50.846;4.442;2022-08-11T09:47:37;24.10;53.60
43894;DHT22;29556;50.846;4.442;2022-08-11T09:50:11;24.20;52.60
43894;DHT22;29556;50.846;4.442;2022-08-11T09:52:40;24.30;51.90
43894;DHT22;29556;50.846;4.442;2022-08-11T09:55:07;24.30;52.00
43894;DHT22;29556;50.846;4.442;2022-08-11T09:57:41;24.40;52.40
43894;DHT22;29556;50.846;4.442;2022-08-11T10:00:29;24.40;52.50
43894;DHT22;29556;50.846;4.442;2022-08-11T10:02:57;24.40;52.00
43894;DHT22;29556;50.846;4.442;2022-08-11T10:05:25;24.40;51.70
43894;DHT22;29556;50.846;4.442;2022-08-11T10:08:11;24.40;50.50
43894;DHT22;29556;50.846;4.442;2022-08-11T10:10:38;24.60;50.90
43894;DHT22;29556;50.846;4.442;2022-08-11T10:13:17;24.60;50.90
43894;DHT22;29556;50.846;4.442;2022-08-11T10:15:46;24.60;50.00
43894;DHT22;29556;50.846;4.442;2022-08-11T10:18:32;24.60;50.00
43894;DHT22;29556;50.846;4.442;2022-08-11T10:21:13;24.70;50.20
43894;DHT22;29556;50.846;4.442;2022-08-11T10:23:40;24.80;49.20
43894;DHT22;29556;50.846;4.442;2022-08-11T10:26:28;24.90;49.30
43894;DHT22;29556;50.846;4.442;2022-08-11T10:29:17;24.90;49.30
43894;DHT22;29556;50.846;4.442;2022-08-11T10:32:02;24.90;49.50
43894;DHT22;29556;50.846;4.442;2022-08-11T10:34:48;25.00;49.70
43894;DHT22;29556;50.846;4.442;2022-08-11T10:37:16;25.00;49.40
43894;DHT22;29556;50.846;4.442;2022-08-11T10:39:42;25.00;49.00
43894;DHT22;29556;50.846;4.442;2022-08-11T10:42:09;25.10;48.50
43894;DHT22;29556;50.846;4.442;2022-08-11T10:44:57;25.10;48.90
43894;DHT22;29556;50.846;4.442;2022-08-11T10:47:29;25.20;48.90
43894;DHT22;29556;50.846;4.442;2022-08-11T10:50:06;25.30;49.20
43894;DHT22;29556;50.846;4.442;2022-08-11T10:52:56;25.30;49.30
43894;DHT22;29556;50.846;4.442;2022-08-11T10:55:43;25.30;49.30
43894;DHT22;29556;50.846;4.442;2022-08-11T10:58:30;25.20;49.00
43894;DHT22;29556;50.846;4.442;2022-08-11T11:04:17;25.30;48.90
43894;DHT22;29556;50.846;4.442;2022-08-11T11:09:41;25.40;48.20
43894;DHT22;29556;50.846;4.442;2022-08-11T11:12:17;25.40;48.40
43894;DHT22;29556;50.846;4.442;2022-08-11T11:15:03;25.50;47.90
43894;DHT22;29556;50.846;4.442;2022-08-11T11:17:59;25.50;47.80
43894;DHT22;29556;50.846;4.442;2022-08-11T11:22:58;25.70;47.50
43894;DHT22;29556;50.846;4.442;2022-08-11T11:29:02;25.80;46.80
43894;DHT22;29556;50.846;4.442;2022-08-11T11:37:25;25.90;46.30
43894;DHT22;29556;50.846;4.442;2022-08-11T11:39:55;25.80;46.10
43894;DHT22;29556;50.846;4.442;2022-08-11T11:42:22;25.90;45.90
43894;DHT22;29556;50.846;4.442;2022-08-11T11:44:48;25.90;45.00
43894;DHT22;29556;50.846;4.442;2022-08-11T11:47:15;25.90;45.30
43894;DHT22;29556;50.846;4.442;2022-08-11T11:49:46;26.00;45.60
43894;DHT22;29556;50.846;4.442;2022-08-11T11:52:15;26.00;45.70
43894;DHT22;29556;50.846;4.442;2022-08-11T11:54:50;26.00;45.40
43894;DHT22;29556;50.846;4.442;2022-08-11T11:57:20;26.00;45.50
43894;DHT22;29556;50.846;4.442;2022-08-11T12:00:10;26.10;45.30
43894;DHT22;29556;50.846;4.442;2022-08-11T12:03:04;26.10;45.10
43894;DHT22;29556;50.846;4.442;2022-08-11T12:05:41;26.20;45.20
43894;DHT22;29556;50.846;4.442;2022-08-11T12:08:20;26.20;45.00
43894;DHT22;29556;50.846;4.442;2022-08-11T12:11:09;26.30;45.20
43894;DHT22;29556;50.846;4.442;2022-08-11T12:13:59;26.30;45.10
43894;DHT22;29556;50.846;4.442;2022-08-11T12:16:43;26.30;45.10
43894;DHT22;29556;50.846;4.442;2022-08-11T12:19:15;26.40;44.80
43894;DHT22;29556;50.846;4.442;2022-08-11T12:21:43;26.50;44.10
43894;DHT22;29556;50.846;4.442;2022-08-11T12:24:45;26.60;43.70
43894;DHT22;29556;50.846;4.442;2022-08-11T12:27:36;26.70;42.60
43894;DHT22;29556;50.846;4.442;2022-08-11T12:30:05;26.70;42.90
43894;DHT22;29556;50.846;4.442;2022-08-11T12:32:37;26.70;43.20
43894;DHT22;29556;50.846;4.442;2022-08-11T12:35:13;26.80;42.70
43894;DHT22;29556;50.846;4.442;2022-08-11T12:37:49;26.80;42.70
43894;DHT22;29556;50.846;4.442;2022-08-11T12:40:19;26.80;42.90
43894;DHT22;29556;50.846;4.442;2022-08-11T12:43:12;26.80;42.80
43894;DHT22;29556;50.846;4.442;2022-08-11T12:46:04;26.90;42.30
43894;DHT22;29556;50.846;4.442;2022-08-11T12:48:44;26.80;41.80
43894;DHT22;29556;50.846;4.442;2022-08-11T12:51:36;26.90;41.80
43894;DHT22;29556;50.846;4.442;2022-08-11T12:54:33;26.90;41.80
43894;DHT22;29556;50.846;4.442;2022-08-11T12:57:34;26.90;42.10
43894;DHT22;29556;50.846;4.442;2022-08-11T13:00:20;27.00;41.90
43894;DHT22;29556;50.846;4.442;2022-08-11T13:03:08;26.90;41.00
43894;DHT22;29556;50.846;4.442;2022-08-11T13:06:09;27.00;41.90
43894;DHT22;29556;50.846;4.442;2022-08-11T13:08:44;27.10;41.60
43894;DHT22;29556;50.846;4.442;2022-08-11T13:11:20;27.10;41.80
43894;DHT22;29556;50.846;4.442;2022-08-11T13:14:38;27.10;41.00
43894;DHT22;29556;50.846;4.442;2022-08-11T13:17:11;27.30;40.60
43894;DHT22;29556;50.846;4.442;2022-08-11T13:19:52;27.30;40.80
43894;DHT22;29556;50.846;4.442;2022-08-11T13:22:21;27.30;40.70
43894;DHT22;29556;50.846;4.442;2022-08-11T13:24:51;27.30;40.90
43894;DHT22;29556;50.846;4.442;2022-08-11T13:27:42;27.40;40.70
43894;DHT22;29556;50.846;4.442;2022-08-11T13:30:13;27.40;40.50
43894;DHT22;29556;50.846;4.442;2022-08-11T13:32:59;27.50;40.40
43894;DHT22;29556;50.846;4.442;2022-08-11T13:35:36;27.50;40.70
43894;DHT22;29556;50.846;4.442;2022-08-11T13:38:29;27.50;40.20
43894;DHT22;29556;50.846;4.442;2022-08-11T13:41:04;27.50;40.40
43894;DHT22;29556;50.846;4.442;2022-08-11T13:43:55;27.50;40.10
43894;DHT22;29556;50.846;4.442;2022-08-11T13:46:24;27.50;40.70
43894;DHT22;29556;50.846;4.442;2022-08-11T13:48:55;27.60;39.80
43894;DHT22;29556;50.846;4.442;2022-08-11T13:51:28;27.70;40.10
43894;DHT22;29556;50.846;4.442;2022-08-11T13:54:27;27.80;40.30
43894;DHT22;29556;50.846;4.442;2022-08-11T13:57:14;27.80;40.30
43894;DHT22;29556;50.846;4.442;2022-08-11T13:59:46;27.90;40.70
43894;DHT22;29556;50.846;4.442;2022-08-11T14:02:49;27.80;40.40
43894;DHT22;29556;50.846;4.442;2022-08-11T14:06:26;27.80;40.20
43894;DHT22;29556;50.846;4.442;2022-08-11T14:09:11;27.80;40.10
43894;DHT22;29556;50.846;4.442;2022-08-11T14:11:55;27.90;40.20
43894;DHT22;29556;50.846;4.442;2022-08-11T14:14:47;28.10;39.10
43894;DHT22;29556;50.846;4.442;2022-08-11T14:17:31;28.00;39.30
43894;DHT22;29556;50.846;4.442;2022-08-11T14:20:30;28.00;39.70
43894;DHT22;29556;50.846;4.442;2022-08-11T14:23:45;28.10;39.10
43894;DHT22;29556;50.846;4.442;2022-08-11T14:26:34;28.10;39.00
43894;DHT22;29556;50.846;4.442;2022-08-11T14:29:20;28.00;39.40
43894;DHT22;29556;50.846;4.442;2022-08-11T14:31:56;28.10;38.50
43894;DHT22;29556;50.846;4.442;2022-08-11T14:34:30;28.10;38.50
43894;DHT22;29556;50.846;4.442;2022-08-11T14:37:22;28.00;38.20
43894;DHT22;29556;50.846;4.442;2022-08-11T14:39:57;28.10;38.70
43894;DHT22;29556;50.846;4.442;2022-08-11T14:42:24;28.20;37.50
43894;DHT22;29556;50.846;4.442;2022-08-11T14:45:10;28.20;37.40
43894;DHT22;29556;50.846;4.442;2022-08-11T14:48:07;28.30;37.30
43894;DHT22;29556;50.846;4.442;2022-08-11T14:50:36;28.40;37.50
43894;DHT22;29556;50.846;4.442;2022-08-11T14:53:10;28.40;38.00
43894;DHT22;29556;50.846;4.442;2022-08-11T14:56:11;28.40;38.20
43894;DHT22;29556;50.846;4.442;2022-08-11T14:59:00;28.30;38.60
43894;DHT22;29556;50.846;4.442;2022-08-11T15:01:27;28.40;38.50
43894;DHT22;29556;50.846;4.442;2022-08-11T15:04:14;28.50;37.60
43894;DHT22;29556;50.846;4.442;2022-08-11T15:06:46;28.40;37.60
43894;DHT22;29556;50.846;4.442;2022-08-11T15:09:14;28.50;37.90
43894;DHT22;29556;50.846;4.442;2022-08-11T15:11:44;28.40;37.90
43894;DHT22;29556;50.846;4.442;2022-08-11T15:14:30;28.50;38.10
43894;DHT22;29556;50.846;4.442;2022-08-11T15:17:17;28.50;38.00
43894;DHT22;29556;50.846;4.442;2022-08-11T15:19:44;28.50;37.90
43894;DHT22;29556;50.846;4.442;2022-08-11T15:22:29;28.50;37.60
43894;DHT22;29556;50.846;4.442;2022-08-11T15:25:15;28.50;38.00
43894;DHT22;29556;50.846;4.442;2022-08-11T15:27:46;28.50;38.30
43894;DHT22;29556;50.846;4.442;2022-08-11T15:30:34;28.60;38.30
43894;DHT22;29556;50.846;4.442;2022-08-11T15:33:21;28.50;38.00
43894;DHT22;29556;50.846;4.442;2022-08-11T15:36:16;28.50;38.10
43894;DHT22;29556;50.846;4.442;2022-08-11T15:39:27;28.50;38.30
43894;DHT22;29556;50.846;4.442;2022-08-11T15:44:30;28.50;38.60
43894;DHT22;29556;50.846;4.442;2022-08-11T15:47:17;28.30;38.60
43894;DHT22;29556;50.846;4.442;2022-08-11T15:49:50;28.50;39.00
43894;DHT22;29556;50.846;4.442;2022-08-11T15:52:20;28.50;39.10
43894;DHT22;29556;50.846;4.442;2022-08-11T15:54:48;28.50;39.00
43894;DHT22;29556;50.846;4.442;2022-08-11T15:59:45;28.50;38.80
43894;DHT22;29556;50.846;4.442;2022-08-11T16:02:32;28.50;38.60
43894;DHT22;29556;50.846;4.442;2022-08-11T16:05:17;28.60;37.80
43894;DHT22;29556;50.846;4.442;2022-08-11T16:07:43;28.60;37.90
43894;DHT22;29556;50.846;4.442;2022-08-11T16:10:15;28.60;37.80
43894;DHT22;29556;50.846;4.442;2022-08-11T16:12:56;28.60;37.90
43894;DHT22;29556;50.846;4.442;2022-08-11T16:15:41;28.60;37.10
43894;DHT22;29556;50.846;4.442;2022-08-11T16:18:35;28.60;35.90
43894;DHT22;29556;50.846;4.442;2022-08-11T16:21:20;28.50;37.20
43894;DHT22;29556;50.846;4.442;2022-08-11T16:23:50;28.60;36.70
43894;DHT22;29556;50.846;4.442;2022-08-11T16:26:19;28.60;36.40
43894;DHT22;29556;50.846;4.442;2022-08-11T16:28:52;28.60;36.10
43894;DHT22;29556;50.846;4.442;2022-08-11T16:31:23;28.60;36.30
43894;DHT22;29556;50.846;4.442;2022-08-11T16:33:53;28.70;36.80
43894;DHT22;29556;50.846;4.442;2022-08-11T16:36:23;28.60;36.60
43894;DHT22;29556;50.846;4.442;2022-08-11T16:39:09;28.60;36.60
43894;DHT22;29556;50.846;4.442;2022-08-11T16:41:38;28.50;35.90
43894;DHT22;29556;50.846;4.442;2022-08-11T16:44:25;28.60;36.30
43894;DHT22;29556;50.846;4.442;2022-08-11T16:47:13;28.50;36.40
43894;DHT22;29556;50.846;4.442;2022-08-11T16:49:48;28.50;36.30
43894;DHT22;29556;50.846;4.442;2022-08-11T16:52:18;28.50;36.20
43894;DHT22;29556;50.846;4.442;2022-08-11T16:54:46;28.50;35.90
43894;DHT22;29556;50.846;4.442;2022-08-11T16:57:25;28.50;35.30
43894;DHT22;29556;50.846;4.442;2022-08-11T17:00:15;28.50;35.60
43894;DHT22;29556;50.846;4.442;2022-08-11T17:02:50;28.50;35.80
43894;DHT22;29556;50.846;4.442;2022-08-11T17:05:53;28.50;35.20
43894;DHT22;29556;50.846;4.442;2022-08-11T17:08:46;28.50;35.30
43894;DHT22;29556;50.846;4.442;2022-08-11T17:11:41;28.50;35.40
43894;DHT22;29556;50.846;4.442;2022-08-11T17:17:10;28.40;36.00
43894;DHT22;29556;50.846;4.442;2022-08-11T17:19:47;28.30;36.10
43894;DHT22;29556;50.846;4.442;2022-08-11T17:22:17;28.30;36.20
43894;DHT22;29556;50.846;4.442;2022-08-11T17:25:15;28.30;35.80
43894;DHT22;29556;50.846;4.442;2022-08-11T17:27:42;28.30;36.20
43894;DHT22;29556;50.846;4.442;2022-08-11T17:30:15;28.20;36.10
43894;DHT22;29556;50.846;4.442;2022-08-11T17:33:10;28.20;36.00
43894;DHT22;29556;50.846;4.442;2022-08-11T17:35:58;28.20;36.10
43894;DHT22;29556;50.846;4.442;2022-08-11T17:38:27;28.20;36.00
43894;DHT22;29556;50.846;4.442;2022-08-11T17:41:01;28.10;36.00
43894;DHT22;29556;50.846;4.442;2022-08-11T17:43:49;28.20;36.20
43894;DHT22;29556;50.846;4.442;2022-08-11T17:46:47;28.10;36.60
43894;DHT22;29556;50.846;4.442;2022-08-11T17:49:33;28.10;36.80
43894;DHT22;29556;50.846;4.442;2022-08-11T17:52:06;28.00;37.20
43894;DHT22;29556;50.846;4.442;2022-08-11T17:55:01;27.80;36.90
43894;DHT22;29556;50.846;4.442;2022-08-11T17:57:49;27.80;37.40
43894;DHT22;29556;50.846;4.442;2022-08-11T18:00:39;27.80;37.70
43894;DHT22;29556;50.846;4.442;2022-08-11T18:03:07;27.70;37.90
43894;DHT22;29556;50.846;4.442;2022-08-11T18:06:01;27.70;38.30
43894;DHT22;29556;50.846;4.442;2022-08-11T18:08:32;27.70;38.80
43894;DHT22;29556;50.846;4.442;2022-08-11T18:11:19;27.60;39.10
43894;DHT22;29556;50.846;4.442;2022-08-11T18:14:07;27.50;39.20
43894;DHT22;29556;50.846;4.442;2022-08-11T18:16:57;27.50;39.60
43894;DHT22;29556;50.846;4.442;2022-08-11T18:19:42;27.40;39.90
43894;DHT22;29556;50.846;4.442;2022-08-11T18:22:30;27.30;39.90
43894;DHT22;29556;50.846;4.442;2022-08-11T18:25:19;27.20;40.20
43894;DHT22;29556;50.846;4.442;2022-08-11T18:28:07;27.20;40.50
43894;DHT22;29556;50.846;4.442;2022-08-11T18:30:53;27.10;40.80
43894;DHT22;29556;50.846;4.442;2022-08-11T18:33:50;27.00;41.30
43894;DHT22;29556;50.846;4.442;2022-08-11T18:36:46;26.90;41.70
43894;DHT22;29556;50.846;4.442;2022-08-11T18:39:35;26.80;42.20
43894;DHT22;29556;50.846;4.442;2022-08-11T18:42:26;26.80;42.60
43894;DHT22;29556;50.846;4.442;2022-08-11T18:45:15;26.60;42.80
43894;DHT22;29556;50.846;4.442;2022-08-11T18:48:02;26.60;43.30
43894;DHT22;29556;50.846;4.442;2022-08-11T18:50:48;26.50;43.60
43894;DHT22;29556;50.846;4.442;2022-08-11T18:53:36;26.40;43.70
43894;DHT22;29556;50.846;4.442;2022-08-11T18:56:24;26.30;44.20
43894;DHT22;29556;50.846;4.442;2022-08-11T18:59:10;26.30;44.60
43894;DHT22;29556;50.846;4.442;2022-08-11T19:01:55;26.20;44.90
43894;DHT22;29556;50.846;4.442;2022-08-11T19:04:42;26.10;45.30
43894;DHT22;29556;50.846;4.442;2022-08-11T19:07:29;26.00;45.60
43894;DHT22;29556;50.846;4.442;2022-08-11T19:10:18;26.00;45.90
43894;DHT22;29556;50.846;4.442;2022-08-11T19:13:05;25.90;46.00
43894;DHT22;29556;50.846;4.442;2022-08-11T19:15:51;25.80;46.20
43894;DHT22;29556;50.846;4.442;2022-08-11T19:18:37;25.80;46.70
43894;DHT22;29556;50.846;4.442;2022-08-11T19:21:22;25.70;46.90
43894;DHT22;29556;50.846;4.442;2022-08-11T19:24:08;25.60;47.20
43894;DHT22;29556;50.846;4.442;2022-08-11T19:26:53;25.60;47.50
43894;DHT22;29556;50.846;4.442;2022-08-11T19:29:40;25.40;48.00
43894;DHT22;29556;50.846;4.442;2022-08-11T19:32:27;25.30;48.30
43894;DHT22;29556;50.846;4.442;2022-08-11T19:35:12;25.30;48.50
43894;DHT22;29556;50.846;4.442;2022-08-11T19:37:57;25.20;48.80
43894;DHT22;29556;50.846;4.442;2022-08-11T19:40:44;25.10;49.10
43894;DHT22;29556;50.846;4.442;2022-08-11T19:43:30;25.00;49.50
43894;DHT22;29556;50.846;4.442;2022-08-11T19:46:18;25.00;49.70
43894;DHT22;29556;50.846;4.442;2022-08-11T19:49:02;25.00;50.00
43894;DHT22;29556;50.846;4.442;2022-08-11T19:51:49;24.90;50.30
43894;DHT22;29556;50.846;4.442;2022-08-11T19:54:34;24.80;50.70
43894;DHT22;29556;50.846;4.442;2022-08-11T19:57:21;24.70;50.80
43894;DHT22;29556;50.846;4.442;2022-08-11T20:00:10;24.70;50.90
43894;DHT22;29556;50.846;4.442;2022-08-11T20:02:58;24.60;51.10
43894;DHT22;29556;50.846;4.442;2022-08-11T20:05:43;24.60;51.30
43894;DHT22;29556;50.846;4.442;2022-08-11T20:08:29;24.60;51.60
43894;DHT22;29556;50.846;4.442;2022-08-11T20:11:14;24.50;51.80
43894;DHT22;29556;50.846;4.442;2022-08-11T20:14:01;24.40;52.10
43894;DHT22;29556;50.846;4.442;2022-08-11T20:16:46;24.40;52.50
43894;DHT22;29556;50.846;4.442;2022-08-11T20:19:32;24.30;52.70
43894;DHT22;29556;50.846;4.442;2022-08-11T20:22:18;24.20;53.20
43894;DHT22;29556;50.846;4.442;2022-08-11T20:25:04;24.20;53.50